createdAt,value
2019-03-28T00:02:21.700Z,16.47
2019-03-28T00:04:53.051Z,15.10
2019-03-28T00:07:24.686Z,12.90
2019-03-28T00:09:56.076Z,14.93
2019-03-28T00:12:27.363Z,17.47
2019-03-28T00:14:58.878Z,13.70
2019-03-28T00:17:30.254Z,14.43
2019-03-28T00:20:01.881Z,13.20
2019-03-28T00:22:43.959Z,16.37
2019-03-28T00:25:15.851Z,15.13
2019-03-28T00:27:47.151Z,20.43
2019-03-28T00:30:20.203Z,15.53
2019-03-28T00:32:52.321Z,15.97
2019-03-28T00:35:23.643Z,15.17
2019-03-28T00:37:54.942Z,20.57
2019-03-28T00:40:26.851Z,17.97
2019-03-28T00:42:58.411Z,18.57
2019-03-28T00:45:30.064Z,19.00
2019-03-28T00:48:01.591Z,21.60
2019-03-28T00:50:33.251Z,15.07
2019-03-28T00:53:04.557Z,16.63
2019-03-28T00:55:36.128Z,18.77
2019-03-28T00:58:07.492Z,16.60
2019-03-28T01:00:38.872Z,17.70
2019-03-28T01:03:11.178Z,17.13
2019-03-28T01:05:42.779Z,18.13
2019-03-28T01:08:14.374Z,16.47
2019-03-28T01:10:45.742Z,18.67
2019-03-28T01:13:17.117Z,18.53
2019-03-28T01:15:49.258Z,18.67
2019-03-28T01:18:21.035Z,17.70
2019-03-28T01:20:52.802Z,17.73
2019-03-28T01:23:24.228Z,16.43
2019-03-28T01:25:55.762Z,16.87
2019-03-28T01:28:27.562Z,19.53
2019-03-28T01:30:59.193Z,17.77
2019-03-28T01:33:30.981Z,17.13
2019-03-28T01:36:02.436Z,15.77
2019-03-28T01:38:34.066Z,16.57
2019-03-28T01:41:05.834Z,17.57
2019-03-28T01:43:37.456Z,16.53
2019-03-28T01:46:09.737Z,17.10
2019-03-28T01:48:41.587Z,19.07
2019-03-28T01:51:13.459Z,15.50
2019-03-28T01:53:45.029Z,17.57
2019-03-28T01:56:16.420Z,16.93
2019-03-28T01:58:48.059Z,19.37
2019-03-28T02:01:19.370Z,16.23
2019-03-28T02:03:51.018Z,15.60
2019-03-28T02:06:22.334Z,22.00
2019-03-28T02:08:53.970Z,21.10
2019-03-28T02:11:25.368Z,21.50
2019-03-28T02:13:57.673Z,23.03
2019-03-28T02:16:28.988Z,22.53
2019-03-28T02:19:00.887Z,20.03
2019-03-28T02:21:32.709Z,21.77
2019-03-28T02:24:04.169Z,21.13
2019-03-28T02:26:35.726Z,23.60
2019-03-28T02:29:07.495Z,21.30
2019-03-28T02:31:39.251Z,19.40
2019-03-28T02:34:10.589Z,19.60
2019-03-28T02:36:41.989Z,18.73
2019-03-28T02:39:13.309Z,21.97
2019-03-28T02:41:44.703Z,18.73
2019-03-28T02:44:16.293Z,21.37
2019-03-28T02:46:47.916Z,18.07
2019-03-28T02:49:19.881Z,22.47
2019-03-28T02:51:51.426Z,22.00
2019-03-28T02:54:22.717Z,18.47
2019-03-28T02:56:54.129Z,21.27
2019-03-28T02:59:25.707Z,21.17
2019-03-28T03:01:57.657Z,23.03
2019-03-28T03:04:29.071Z,21.13
2019-03-28T03:07:00.708Z,24.20
2019-03-28T03:09:32.309Z,24.73
2019-03-28T03:12:03.976Z,25.07
2019-03-28T03:14:37.523Z,20.30
2019-03-28T03:17:09.415Z,23.93
2019-03-28T03:19:40.821Z,22.13
2019-03-28T03:22:12.432Z,26.73
2019-03-28T03:24:44.056Z,21.30
2019-03-28T03:27:15.888Z,23.80
2019-03-28T03:29:47.500Z,23.13
2019-03-28T03:32:18.821Z,24.17
2019-03-28T03:34:50.678Z,25.40
2019-03-28T03:37:22.993Z,28.50
2019-03-28T03:39:54.489Z,30.60
2019-03-28T03:42:26.375Z,33.30
2019-03-28T03:45:01.150Z,29.10
2019-03-28T03:47:33.209Z,27.70
2019-03-28T03:50:05.326Z,28.53
2019-03-28T03:52:36.723Z,31.10
2019-03-28T03:55:08.437Z,33.50
2019-03-28T03:57:40.627Z,30.70
2019-03-28T04:00:13.689Z,28.90
2019-03-28T04:02:45.481Z,29.17
2019-03-28T04:05:16.847Z,29.43
2019-03-28T04:07:48.139Z,28.40
2019-03-28T04:10:19.483Z,26.87
2019-03-28T04:12:51.101Z,30.13
2019-03-28T04:15:22.531Z,28.93
2019-03-28T04:17:53.931Z,26.63
2019-03-28T04:20:25.377Z,29.53
2019-03-28T04:22:57.931Z,26.10
2019-03-28T04:25:29.853Z,27.73
2019-03-28T04:28:01.632Z,29.80
2019-03-28T04:30:33.206Z,29.43
2019-03-28T04:33:04.828Z,25.53
2019-03-28T04:35:36.465Z,29.03
2019-03-28T04:38:08.102Z,28.27
2019-03-28T04:40:39.959Z,26.43
2019-03-28T04:43:12.544Z,22.50
2019-03-28T04:45:44.519Z,28.57
2019-03-28T04:48:15.842Z,21.90
2019-03-28T04:50:48.376Z,26.33
2019-03-28T04:53:20.660Z,23.90
2019-03-28T04:55:52.320Z,26.90
2019-03-28T04:58:23.894Z,34.60
2019-03-28T05:00:55.307Z,34.43
2019-03-28T05:03:26.694Z,32.40
2019-03-28T05:05:58.484Z,32.57
2019-03-28T05:08:30.210Z,32.10
2019-03-28T05:11:01.548Z,32.87
2019-03-28T05:13:34.111Z,35.23
2019-03-28T05:16:05.524Z,28.03
2019-03-28T05:18:37.063Z,28.83
2019-03-28T05:21:08.557Z,34.90
2019-03-28T05:23:40.578Z,34.13
2019-03-28T05:26:12.348Z,33.67
2019-03-28T05:29:03.355Z,40.00
2019-03-28T05:31:53.116Z,38.50
2019-03-28T05:34:42.933Z,30.30
2019-03-28T05:37:32.999Z,39.03
2019-03-28T05:40:04.806Z,32.43
2019-03-28T05:42:36.216Z,34.03
2019-03-28T05:45:08.079Z,36.00
2019-03-28T05:47:39.690Z,37.03
2019-03-28T05:50:11.100Z,38.73
2019-03-28T05:52:42.460Z,30.27
2019-03-28T05:55:13.793Z,32.77
2019-03-28T05:57:45.710Z,31.57
2019-03-28T06:00:17.534Z,30.80
2019-03-28T06:02:48.933Z,29.33
2019-03-28T06:05:20.251Z,29.50
2019-03-28T06:07:51.570Z,32.77
2019-03-28T06:10:22.976Z,31.07
2019-03-28T06:12:54.295Z,30.67
2019-03-28T06:15:28.819Z,32.13
2019-03-28T06:18:00.134Z,36.27
2019-03-28T06:20:31.469Z,31.97
2019-03-28T06:23:03.174Z,32.17
2019-03-28T06:25:34.581Z,27.43
2019-03-28T06:28:06.300Z,29.50
2019-03-28T06:30:37.716Z,35.50
2019-03-28T06:33:09.105Z,35.60
2019-03-28T06:35:40.912Z,35.17
2019-03-28T06:38:12.326Z,35.00
2019-03-28T06:40:43.972Z,35.30
2019-03-28T06:43:15.710Z,28.27
2019-03-28T06:45:47.404Z,30.33
2019-03-28T06:48:19.019Z,32.80
2019-03-28T06:50:50.345Z,32.20
2019-03-28T06:53:21.967Z,29.47
2019-03-28T06:55:53.295Z,30.10
2019-03-28T06:58:24.864Z,31.00
2019-03-28T07:00:56.312Z,30.60
2019-03-28T07:03:27.701Z,29.10
2019-03-28T07:05:59.594Z,27.03
2019-03-28T07:08:30.929Z,36.77
2019-03-28T07:11:02.625Z,29.27
2019-03-28T07:13:35.068Z,31.10
2019-03-28T07:16:06.472Z,30.17
2019-03-28T07:18:37.975Z,30.27
2019-03-28T07:21:09.415Z,28.90
2019-03-28T07:23:40.741Z,31.83
2019-03-28T07:26:12.228Z,30.60
2019-03-28T07:28:45.244Z,33.03
2019-03-28T07:31:16.647Z,36.03
2019-03-28T07:33:47.961Z,31.43
2019-03-28T07:36:20.253Z,32.03
2019-03-28T07:38:51.567Z,33.63
2019-03-28T07:41:24.141Z,33.90
2019-03-28T07:43:55.824Z,31.33
2019-03-28T07:46:27.240Z,30.20
2019-03-28T07:48:58.546Z,28.10
2019-03-28T07:51:30.170Z,33.30
2019-03-28T07:54:01.472Z,31.17
2019-03-28T07:56:33.030Z,32.60
2019-03-28T07:59:04.443Z,32.60
2019-03-28T08:01:36.180Z,35.87
2019-03-28T08:04:07.574Z,25.90
2019-03-28T08:06:49.128Z,30.57
2019-03-28T08:09:12.227Z,28.63
2019-03-28T08:11:44.060Z,28.23
2019-03-28T08:14:15.675Z,29.07
2019-03-28T08:16:47.287Z,27.67
2019-03-28T08:19:18.832Z,29.63
2019-03-28T08:21:50.324Z,21.57
2019-03-28T08:24:21.887Z,28.23
2019-03-28T08:26:53.524Z,28.10
2019-03-28T08:29:25.108Z,22.63
2019-03-28T08:31:57.201Z,23.93
2019-03-28T08:34:31.315Z,31.27
2019-03-28T08:37:02.420Z,25.50
2019-03-28T08:39:34.245Z,24.73
2019-03-28T08:42:06.111Z,28.90
2019-03-28T08:44:38.535Z,24.33
2019-03-28T08:47:10.544Z,27.83
2019-03-28T08:49:42.219Z,25.60
2019-03-28T08:52:13.889Z,27.20
2019-03-28T08:54:45.445Z,25.53
2019-03-28T08:57:17.129Z,24.20
2019-03-28T08:59:48.776Z,25.87
2019-03-28T09:02:20.101Z,29.23
2019-03-28T09:04:51.441Z,31.03
2019-03-28T09:07:22.838Z,29.37
2019-03-28T09:09:54.251Z,26.40
2019-03-28T09:12:26.139Z,32.03
2019-03-28T09:14:57.480Z,29.77
2019-03-28T09:17:28.784Z,31.00
2019-03-28T09:20:00.887Z,31.43
2019-03-28T09:22:32.456Z,27.67
2019-03-28T09:25:04.109Z,33.33
2019-03-28T09:27:35.980Z,34.77
2019-03-28T09:30:08.260Z,30.70
2019-03-28T09:32:39.993Z,32.80
2019-03-28T09:35:13.442Z,30.40
2019-03-28T09:37:45.737Z,30.50
2019-03-28T09:40:17.429Z,35.13
2019-03-28T09:42:49.125Z,33.43
2019-03-28T09:45:20.553Z,32.03
2019-03-28T09:47:51.899Z,31.43
2019-03-28T09:50:23.247Z,29.30
2019-03-28T09:52:55.433Z,29.33
2019-03-28T09:55:26.790Z,32.50
2019-03-28T09:57:58.156Z,26.87
2019-03-28T10:00:32.629Z,30.33
2019-03-28T10:03:03.012Z,34.03
2019-03-28T10:05:37.748Z,29.00
2019-03-28T10:08:07.730Z,31.23
2019-03-28T10:10:39.356Z,35.73
2019-03-28T10:13:11.013Z,28.23
2019-03-28T10:15:43.807Z,29.37
2019-03-28T10:18:15.985Z,27.40
2019-03-28T10:20:47.310Z,32.10
2019-03-28T10:23:19.620Z,35.13
2019-03-28T10:25:51.467Z,38.40
2019-03-28T10:28:23.115Z,27.37
2019-03-28T10:30:54.512Z,25.83
2019-03-28T10:33:28.232Z,21.93
2019-03-28T10:35:59.879Z,28.07
2019-03-28T10:38:31.298Z,26.47
2019-03-28T10:41:02.776Z,23.13
2019-03-28T10:43:34.157Z,21.60
2019-03-28T10:46:05.828Z,24.07
2019-03-28T10:48:37.475Z,25.43
2019-03-28T10:51:08.882Z,21.40
2019-03-28T10:53:40.447Z,21.03
2019-03-28T10:56:21.587Z,26.63
2019-03-28T10:58:45.425Z,19.80
2019-03-28T11:01:31.293Z,18.20
2019-03-28T11:03:49.902Z,15.47
2019-03-28T11:06:21.287Z,17.77
2019-03-28T11:08:52.628Z,14.17
2019-03-28T11:11:24.072Z,15.63
2019-03-28T11:13:55.420Z,14.77
2019-03-28T11:16:27.139Z,13.33
2019-03-28T11:18:59.518Z,12.57
2019-03-28T11:21:34.183Z,10.77
2019-03-28T11:24:04.679Z,11.77
2019-03-28T11:26:36.295Z,13.57
2019-03-28T11:29:08.113Z,12.27
2019-03-28T11:31:46.697Z,9.17
2019-03-28T11:34:14.684Z,11.47
2019-03-28T11:36:46.230Z,11.03
2019-03-28T11:39:17.835Z,12.20
2019-03-28T11:41:49.470Z,11.90
2019-03-28T11:44:21.184Z,11.13
2019-03-28T11:46:52.508Z,12.50
2019-03-28T11:49:23.843Z,11.90
2019-03-28T11:51:55.481Z,9.33
2019-03-28T11:54:27.056Z,9.53
2019-03-28T11:56:58.677Z,9.30
2019-03-28T11:59:30.319Z,9.17
2019-03-28T12:02:18.631Z,8.73
2019-03-28T12:04:34.653Z,13.60
2019-03-28T12:07:06.038Z,11.07
2019-03-28T12:09:38.234Z,11.63
2019-03-28T12:12:09.828Z,10.97
2019-03-28T12:14:41.455Z,9.53
2019-03-28T12:17:12.781Z,11.17
2019-03-28T12:19:44.155Z,12.60
2019-03-28T12:22:15.556Z,11.70
2019-03-28T12:24:46.909Z,12.57
2019-03-28T12:27:18.299Z,12.83
2019-03-28T12:29:49.891Z,12.43
2019-03-28T12:32:21.896Z,9.57
2019-03-28T12:34:53.225Z,10.27
2019-03-28T12:37:24.868Z,11.13
2019-03-28T12:39:59.848Z,11.17
2019-03-28T12:42:29.733Z,11.40
2019-03-28T12:45:02.034Z,14.13
2019-03-28T12:47:42.372Z,11.50
2019-03-28T12:50:06.990Z,12.53
2019-03-28T12:52:38.616Z,10.07
2019-03-28T12:55:10.397Z,11.57
2019-03-28T12:57:42.211Z,10.57
2019-03-28T13:00:13.967Z,10.03
2019-03-28T13:02:45.579Z,10.67
2019-03-28T13:05:17.308Z,10.97
2019-03-28T13:07:48.641Z,10.43
2019-03-28T13:10:20.117Z,12.20
2019-03-28T13:12:51.727Z,10.83
2019-03-28T13:15:23.516Z,10.17
2019-03-28T13:17:54.930Z,8.83
2019-03-28T13:20:26.432Z,10.13
2019-03-28T13:22:58.034Z,8.50
2019-03-28T13:25:29.620Z,9.10
2019-03-28T13:28:00.943Z,11.13
2019-03-28T13:30:32.362Z,9.93
2019-03-28T13:33:04.125Z,8.07
2019-03-28T13:35:35.691Z,10.00
2019-03-28T13:38:06.996Z,8.73
2019-03-28T13:40:38.551Z,7.00
2019-03-28T13:43:09.930Z,8.57
2019-03-28T13:45:41.638Z,8.70
2019-03-28T13:48:13.890Z,6.83
2019-03-28T13:50:45.371Z,11.23
2019-03-28T13:53:17.719Z,8.73
2019-03-28T13:55:52.008Z,11.30
2019-03-28T13:58:23.265Z,12.27
2019-03-28T14:00:56.325Z,11.43
2019-03-28T14:03:29.037Z,12.70
2019-03-28T14:06:01.248Z,9.50
2019-03-28T14:08:32.654Z,11.40
2019-03-28T14:11:03.997Z,90.63
2019-03-28T14:13:35.326Z,21.27
2019-03-28T14:16:06.750Z,25.20
2019-03-28T14:18:38.097Z,37.27
2019-03-28T14:21:09.494Z,10.17
2019-03-28T14:23:41.084Z,12.47
2019-03-28T14:26:12.495Z,11.53
2019-03-28T14:28:44.210Z,10.73
2019-03-28T14:31:15.771Z,9.37
2019-03-28T14:33:47.627Z,13.73
2019-03-28T14:36:19.167Z,10.43
2019-03-28T14:38:50.741Z,38.93
2019-03-28T14:41:22.627Z,12.43
2019-03-28T14:43:55.308Z,12.63
2019-03-28T14:46:27.915Z,14.60
2019-03-28T14:48:59.587Z,30.37
2019-03-28T14:51:30.956Z,32.37
2019-03-28T14:54:02.541Z,77.13
2019-03-28T14:56:34.295Z,10.43
2019-03-28T14:59:05.805Z,12.07
2019-03-28T15:01:37.187Z,9.13
2019-03-28T15:04:08.594Z,9.77
2019-03-28T15:06:39.983Z,7.87
2019-03-28T15:09:11.630Z,8.17
2019-03-28T15:11:43.501Z,8.80
2019-03-28T15:14:14.893Z,8.03
2019-03-28T15:16:46.421Z,7.73
2019-03-28T15:19:17.758Z,7.90
2019-03-28T15:21:49.434Z,7.80
2019-03-28T15:24:20.912Z,8.73
2019-03-28T15:26:53.012Z,10.10
2019-03-28T15:29:24.387Z,7.97
2019-03-28T15:31:56.251Z,7.33
2019-03-28T15:34:27.874Z,7.60
2019-03-28T15:36:59.197Z,7.10
2019-03-28T15:39:31.623Z,7.87
2019-03-28T15:42:03.218Z,8.87
2019-03-28T15:44:34.793Z,6.63
2019-03-28T15:47:06.346Z,6.73
2019-03-28T15:49:37.900Z,7.33
2019-03-28T15:52:09.198Z,8.03
2019-03-28T15:54:41.574Z,7.57
2019-03-28T15:57:13.230Z,7.93
2019-03-28T15:59:45.378Z,8.60
2019-03-28T16:02:17.009Z,7.43
2019-03-28T16:04:48.334Z,7.23
2019-03-28T16:07:20.130Z,9.53
2019-03-28T16:09:52.004Z,7.63
2019-03-28T16:12:23.624Z,7.27
2019-03-28T16:14:55.842Z,7.10
2019-03-28T16:17:27.324Z,7.30
2019-03-28T16:19:58.958Z,7.43
2019-03-28T16:22:30.597Z,6.67
2019-03-28T16:25:02.174Z,7.40
2019-03-28T16:27:33.552Z,6.97
2019-03-28T16:30:05.673Z,6.57
2019-03-28T16:32:37.522Z,7.27
2019-03-28T16:35:09.259Z,7.77
2019-03-28T16:37:40.584Z,6.87
2019-03-28T16:40:12.156Z,7.20
2019-03-28T16:42:43.472Z,7.97
2019-03-28T16:45:15.092Z,6.90
2019-03-28T16:47:46.612Z,8.80
2019-03-28T16:50:18.235Z,7.73
2019-03-28T16:52:49.784Z,8.87
2019-03-28T16:55:26.633Z,7.47
2019-03-28T16:57:54.662Z,7.57
2019-03-28T17:00:35.402Z,7.03
2019-03-28T17:03:07.428Z,6.93
2019-03-28T17:05:38.894Z,7.63
2019-03-28T17:08:10.573Z,7.17
2019-03-28T17:10:55.067Z,8.63
2019-03-28T17:13:26.747Z,6.93
2019-03-28T17:15:58.160Z,7.60
2019-03-28T17:18:30.559Z,9.00
2019-03-28T17:21:02.911Z,7.20
2019-03-28T17:23:35.544Z,7.33
2019-03-28T17:26:06.982Z,11.07
2019-03-28T17:28:38.904Z,6.80
2019-03-28T17:31:10.507Z,6.47
2019-03-28T17:33:41.832Z,7.87
2019-03-28T17:36:13.379Z,5.37
2019-03-28T17:38:44.972Z,5.63
2019-03-28T17:41:16.610Z,5.90
2019-03-28T17:43:48.016Z,7.83
2019-03-28T17:46:19.801Z,7.57
2019-03-28T17:48:51.124Z,5.77
2019-03-28T17:51:22.765Z,8.67
2019-03-28T17:53:56.119Z,8.33
2019-03-28T17:56:27.748Z,5.90
2019-03-28T17:58:59.298Z,7.10
2019-03-28T18:01:30.730Z,7.90
2019-03-28T18:04:02.047Z,5.67
2019-03-28T18:06:35.255Z,5.63
2019-03-28T18:09:08.283Z,6.43
2019-03-28T18:11:39.616Z,7.23
2019-03-28T18:14:10.929Z,7.13
2019-03-28T18:16:42.344Z,7.57
2019-03-28T18:19:13.683Z,7.97
2019-03-28T18:21:45.396Z,5.87
2019-03-28T18:24:16.733Z,7.80
2019-03-28T18:26:49.027Z,7.27
2019-03-28T18:29:21.159Z,10.73
2019-03-28T18:31:52.898Z,9.23
2019-03-28T18:34:24.479Z,6.77
2019-03-28T18:36:55.878Z,7.53
2019-03-28T18:39:28.849Z,8.37
2019-03-28T18:42:00.454Z,9.60
2019-03-28T18:44:31.773Z,6.87
2019-03-28T18:47:03.188Z,7.87
2019-03-28T18:49:34.815Z,10.47
2019-03-28T18:52:07.491Z,20.27
2019-03-28T18:54:39.045Z,10.30
2019-03-28T18:57:10.466Z,10.93
2019-03-28T18:59:42.376Z,8.07
2019-03-28T19:02:14.134Z,8.67
2019-03-28T19:04:45.861Z,7.90
2019-03-28T19:07:17.570Z,6.50
2019-03-28T19:09:49.676Z,8.47
2019-03-28T19:12:21.115Z,8.47
2019-03-28T19:14:53.284Z,8.70
2019-03-28T19:17:24.676Z,7.70
2019-03-28T19:19:59.346Z,8.87
2019-03-28T19:22:29.306Z,8.37
2019-03-28T19:25:00.938Z,7.93
2019-03-28T19:27:34.287Z,8.47
2019-03-28T19:30:06.097Z,7.50
2019-03-28T19:32:38.083Z,6.00
2019-03-28T19:35:09.639Z,5.70
2019-03-28T19:37:42.005Z,6.10
2019-03-28T19:40:13.828Z,16.03
2019-03-28T19:42:45.471Z,16.57
2019-03-28T19:45:26.754Z,10.17
2019-03-28T19:47:58.167Z,8.27
2019-03-28T19:50:29.871Z,7.30
2019-03-28T19:53:01.495Z,8.83
2019-03-28T19:55:33.115Z,8.07
2019-03-28T19:58:05.001Z,7.20
2019-03-28T20:00:36.788Z,8.13
2019-03-28T20:03:08.644Z,8.90
2019-03-28T20:05:47.487Z,9.47
2019-03-28T20:08:15.894Z,9.07
2019-03-28T20:10:46.211Z,9.47
2019-03-28T20:13:17.602Z,8.07
2019-03-28T20:15:49.135Z,8.27
2019-03-28T20:18:21.019Z,11.20
2019-03-28T20:20:55.575Z,7.30
2019-03-28T20:23:25.653Z,8.63
2019-03-28T20:25:58.858Z,9.17
2019-03-28T20:28:30.401Z,7.27
2019-03-28T20:31:01.821Z,8.20
2019-03-28T20:33:33.210Z,10.53
2019-03-28T20:36:30.200Z,7.40
2019-03-28T20:38:38.405Z,7.60
2019-03-28T20:41:09.835Z,8.00
2019-03-28T20:43:41.175Z,8.47
2019-03-28T20:46:12.545Z,8.20
2019-03-28T20:48:44.932Z,6.43
2019-03-28T20:51:16.547Z,7.60
2019-03-28T20:53:48.583Z,8.37
2019-03-28T20:56:20.446Z,8.53
2019-03-28T20:58:51.785Z,7.50
2019-03-28T21:01:23.241Z,6.63
2019-03-28T21:03:54.619Z,8.47
2019-03-28T21:06:26.164Z,10.33
2019-03-28T21:08:57.537Z,6.30
2019-03-28T21:11:29.586Z,8.97
2019-03-28T21:14:03.069Z,6.93
2019-03-28T21:16:34.689Z,6.73
2019-03-28T21:19:06.047Z,7.07
2019-03-28T21:21:37.430Z,5.97
2019-03-28T21:24:09.042Z,8.23
2019-03-28T21:26:41.077Z,6.40
2019-03-28T21:29:12.669Z,6.17
2019-03-28T21:31:49.785Z,8.37
2019-03-28T21:34:17.497Z,9.30
2019-03-28T21:36:50.509Z,6.63
2019-03-28T21:39:21.966Z,8.80
2019-03-28T21:41:54.034Z,8.00
2019-03-28T21:44:25.586Z,6.83
2019-03-28T21:46:57.120Z,5.80
2019-03-28T21:49:28.758Z,5.70
2019-03-28T21:52:00.154Z,8.90
2019-03-28T21:54:31.683Z,6.90
2019-03-28T21:57:03.084Z,8.83
2019-03-28T21:59:34.382Z,7.33
2019-03-28T22:02:06.010Z,8.67
2019-03-28T22:04:37.532Z,12.73
2019-03-28T22:07:09.161Z,9.17
2019-03-28T22:09:40.766Z,16.57
2019-03-28T22:12:12.103Z,29.17
2019-03-28T22:14:43.436Z,19.83
2019-03-28T22:17:15.196Z,14.23
2019-03-28T22:19:47.153Z,19.40
2019-03-28T22:22:18.480Z,16.17
2019-03-28T22:24:50.397Z,13.20
2019-03-28T22:27:22.217Z,9.33
2019-03-28T22:29:53.880Z,8.47
2019-03-28T22:32:25.505Z,7.90
2019-03-28T22:34:57.126Z,7.37
2019-03-28T22:37:28.892Z,7.60
2019-03-28T22:40:00.525Z,8.50
2019-03-28T22:42:31.878Z,7.23
2019-03-28T22:45:03.717Z,8.33
2019-03-28T22:47:35.875Z,7.50
2019-03-28T22:50:08.867Z,7.67
2019-03-28T22:52:40.184Z,8.33
2019-03-28T22:55:12.090Z,9.13
2019-03-28T22:57:43.719Z,7.37
2019-03-28T23:00:15.508Z,8.43
2019-03-28T23:02:48.428Z,8.40
2019-03-28T23:05:20.122Z,7.10
2019-03-28T23:07:51.547Z,9.93
2019-03-28T23:10:23.157Z,9.80
2019-03-28T23:12:54.752Z,10.70
2019-03-28T23:15:26.424Z,9.23
2019-03-28T23:17:57.834Z,8.93
2019-03-28T23:20:29.133Z,11.80
2019-03-28T23:23:00.466Z,9.93
2019-03-28T23:25:31.840Z,11.60
2019-03-28T23:28:03.246Z,9.50
2019-03-28T23:30:34.947Z,10.53
2019-03-28T23:33:06.392Z,13.37
2019-03-28T23:35:37.931Z,11.73
2019-03-28T23:38:09.295Z,13.37
2019-03-28T23:40:40.674Z,12.27
2019-03-28T23:43:12.087Z,9.90
2019-03-28T23:45:43.724Z,8.13
2019-03-28T23:48:15.593Z,9.07
2019-03-28T23:50:46.895Z,7.07
2019-03-28T23:53:18.287Z,8.97
2019-03-28T23:55:49.659Z,7.93
2019-03-28T23:58:21.273Z,9.33
